Qasigiannguit

KL  EN  DA
ASIAQ
Weather Now GREENLAND SURVEY
Updated [WGT/WGST] Temperature [°C] Wind [m/s] Air pressure [hPa] Relative humidity [%] Precipitation [mm]
Present Wind chill Speed Max
17.04 23:00-14,0-21,64,1 ⇖6,61015570,0
17.04 22:00-13,8-21,34,1 ⇖6,51015550,0
17.04 21:00-13,6-20,13,2 ⇖5,31015570,0
17.04 20:00-13,0-19,63,4 ⇖5,51014550,0
17.04 19:00-12,8-19,93,9 ⇖5,41013570,0
17.04 18:00-12,2-19,44,1 ⇖6,11013550,0
17.04 17:00-12,3-19,44,0 ⇑5,81012560,0
17.04 16:00-11,4-17,83,5 ⇑5,61012520,0
17.04 15:00-11,3-17,73,6 ⇑5,11011530,0
17.04 14:00-11,8-18,73,9 ⇑5,61011510,0
17.04 13:00-12,4-19,54,0 ⇖6,11011510,0
17.04 12:00-13,7-21,03,9 ⇖6,31011520,0
17.04 11:00-14,0-21,94,5 ⇖6,61011500,0
17.04 10:00-14,5-23,04,9 ⇖6,81010510,0
17.04 09:00-14,8-22,64,1 ⇖6,31010550,0
17.04 08:00-14,8-21,43,1 ⇖5,51010570,0
17.04 07:00-15,4-21,72,9 ⇖4,91009580,0
17.04 06:00-15,4-22,03,1 ⇖4,31009570,0
17.04 05:00-15,7-21,72,6 ⇖3,81008600,0
17.04 04:00-15,5-22,13,1 ⇖4,01008620,0
17.04 03:00-15,7-22,73,3 ⇖4,51008630,0
17.04 02:00-15,5-23,54,2 ⇖5,41008660,0
17.04 01:00-15,1-23,44,5 ⇖5,91008650,0
17.04 00:00-15,1-23,04,1 ⇖5,41007640,0
16.04 23:00-15,1-23,34,5 ⇑6,01007650,0
Position: (68.823667,-51.173861)

[Back]